Salem Township, Maine
Current Conditions -  °F | °C
As of 5:35 PM on Monday 26 Jan 2015 (Local Time) from KWVL Reporting Station
Clear Clear  
Wind Chill:   Ceiling: Unl
Heat Index: 12°   Visibility: 10mi
Dew Point: -8°   Wind: 7mph
Humidity: 41%   Direction: 30°NNE
Pressure: 30.18"   Gusts: NA
Location:  44.8564°N, 70.2117°W
Report Text: KWVL 262235Z 03006KT 10SM CLR M11/M22 A3018 RMK AO1
Loading
Personal Weather Stations






























Interactive Weather Map New forecast layout! Learn more

10-Day Weather Forecast

Advertisements
Track Severe Weather on mobile